| time (UTC) | temp F | wind direction | speed MPH | gust MPH | rain 1hr in | rain 24hr in | rain mn in | humidity % | barometer mb |
| 20260906150329 | 69 | 14 | 0.0 | 0.0 | 0.01 | 0.10 | 0.10 | 90 | 1015.2 |
| 20260906145820 | 69 | 15 | 0.0 | 0.0 | 0.01 | 0.10 | 0.10 | 90 | 1015.1 |
| 20260906145311 | 69 | 14 | 0.0 | 0.0 | 0.01 | 0.11 | 0.10 | 90 | 1015.0 |
| 20260906144827 | 69 | 15 | 0.0 | 0.0 | 0.01 | 0.11 | 0.10 | 90 | 1015.1 |
| 20260906144318 | 69 | 14 | 0.0 | 0.0 | 0.01 | 0.11 | 0.10 | 90 | 1014.9 |
| 20260906143828 | 69 | 14 | 0.0 | 0.0 | 0.01 | 0.11 | 0.10 | 90 | 1014.9 |
| 20260906143319 | 69 | 15 | 0.0 | 0.0 | 0.00 | 0.10 | 0.09 | 90 | 1014.8 |
| 20260906142811 | 69 | 14 | 0.0 | 0.0 | 0.00 | 0.10 | 0.09 | 90 | 1014.8 |
| 20260906142321 | 69 | 15 | 0.0 | 0.0 | 0.00 | 0.10 | 0.09 | 90 | 1014.7 |
| 20260906141812 | 69 | 14 | 0.0 | 0.0 | 0.00 | 0.10 | 0.09 | 90 | 1014.6 |
| 20260906141346 | 69 | 14 | 0.0 | 0.0 | 0.00 | 0.10 | 0.09 | 90 | 1014.6 |
| 20260906140816 | 69 | 14 | 0.0 | 0.0 | 0.00 | 0.10 | 0.09 | 90 | 1014.4 |
| 20260906140311 | 69 | 14 | 0.0 | 0.0 | 0.00 | 0.10 | 0.09 | 90 | 1014.2 |
| 20260906135843 | 69 | 15 | 0.0 | 0.0 | 0.00 | 0.10 | 0.09 | 90 | 1014.1 |
| 20260906135313 | 69 | 7 | 0.0 | 0.0 | 0.00 | 0.10 | 0.09 | 90 | 1013.9 |
| 20260906134825 | 69 | 300 | 0.0 | 0.0 | 0.00 | 0.10 | 0.09 | 90 | 1013.8 |
| 20260906134315 | 69 | 300 | 0.0 | 0.0 | 0.01 | 0.10 | 0.09 | 90 | 1013.7 |
| 20260906133828 | 69 | 300 | 0.0 | 0.0 | 0.01 | 0.10 | 0.09 | 90 | 1013.5 |
| 20260906133319 | 69 | 300 | 0.0 | 0.0 | 0.01 | 0.10 | 0.09 | 90 | 1013.3 |
| 20260906132829 | 69 | 300 | 0.0 | 0.0 | 0.01 | 0.10 | 0.09 | 90 | 1013.2 |
| 20260906132320 | 69 | 300 | 0.0 | 0.0 | 0.02 | 0.10 | 0.09 | 90 | 1013.0 |
| 20260906131811 | 69 | 300 | 0.0 | 0.0 | 0.03 | 0.10 | 0.09 | 90 | 1012.9 |
| 20260906131328 | 69 | 106 | 0.0 | 0.0 | 0.03 | 0.10 | 0.09 | 90 | 1012.8 |
| 20260906130819 | 69 | 106 | 0.0 | 0.0 | 0.04 | 0.10 | 0.09 | 89 | 1012.7 |
| 20260906130329 | 69 | 106 | 0.0 | 0.0 | 0.04 | 0.10 | 0.09 | 89 | 1012.6 |
| 20260906125820 | 69 | 106 | 0.0 | 0.0 | 0.04 | 0.10 | 0.09 | 89 | 1012.7 |
| 20260906125331 | 69 | 106 | 0.0 | 0.0 | 0.05 | 0.10 | 0.09 | 89 | 1012.7 |
| 20260906124823 | 69 | 107 | 0.0 | 0.0 | 0.05 | 0.10 | 0.09 | 88 | 1012.7 |
| 20260906124316 | 69 | 106 | 0.0 | 0.0 | 0.05 | 0.09 | 0.08 | 89 | 1012.8 |
| 20260906123826 | 69 | 106 | 0.0 | 0.0 | 0.05 | 0.09 | 0.08 | 88 | 1013.0 |
| 20260906123338 | 69 | 106 | 0.0 | 0.0 | 0.05 | 0.09 | 0.08 | 88 | 1013.1 |
| 20260906122811 | 69 | 106 | 0.0 | 0.0 | 0.06 | 0.09 | 0.08 | 87 | 1013.1 |
| 20260906122324 | 69 | 106 | 0.0 | 0.0 | 0.05 | 0.08 | 0.07 | 87 | 1013.1 |
| 20260906121815 | 69 | 106 | 0.0 | 0.0 | 0.04 | 0.07 | 0.06 | 87 | 1013.3 |
| 20260906121326 | 69 | 106 | 0.0 | 0.0 | 0.04 | 0.07 | 0.06 | 87 | 1013.1 |
| 20260906120818 | 69 | 106 | 0.0 | 0.0 | 0.03 | 0.06 | 0.05 | 86 | 1013.2 |
| 20260906120329 | 69 | 107 | 0.0 | 0.0 | 0.04 | 0.06 | 0.05 | 86 | 1013.3 |
| 20260906115819 | 69 | 106 | 0.0 | 0.0 | 0.04 | 0.06 | 0.05 | 85 | 1013.2 |
| 20260906115331 | 69 | 106 | 0.0 | 0.0 | 0.03 | 0.05 | 0.04 | 85 | 1013.4 |
| 20260906114822 | 69 | 106 | 0.0 | 0.0 | 0.04 | 0.05 | 0.04 | 83 | 1013.4 |
| 20260906114318 | 69 | 106 | 0.0 | 0.0 | 0.03 | 0.04 | 0.03 | 83 | 1013.7 |
| 20260906113830 | 69 | 106 | 0.0 | 0.0 | 0.03 | 0.04 | 0.03 | 82 | 1013.8 |
| 20260906113320 | 70 | 95 | 0.0 | 3.0 | 0.03 | 0.04 | 0.03 | 82 | 1013.7 |
| 20260906112851 | 70 | 79 | 1.0 | 6.0 | 0.02 | 0.03 | 0.02 | 82 | 1013.8 |
| 20260906112323 | 70 | 75 | 2.0 | 6.0 | 0.02 | 0.03 | 0.02 | 82 | 1013.7 |
| 20260906111814 | 70 | 89 | 3.0 | 6.0 | 0.02 | 0.03 | 0.02 | 81 | 1013.7 |
| 20260906111325 | 70 | 68 | 1.0 | 4.0 | 0.02 | 0.03 | 0.02 | 79 | 1013.9 |
| 20260906110837 | 71 | 85 | 0.0 | 3.0 | 0.02 | 0.03 | 0.02 | 76 | 1013.9 |
| 20260906110327 | 71 | 82 | 1.0 | 3.0 | 0.01 | 0.02 | 0.01 | 75 | 1013.8 |
| 20260906105818 | 73 | 88 | 0.0 | 1.0 | 0.01 | 0.02 | 0.01 | 72 | 1013.9 |
| 20260906105314 | 74 | 238 | 0.0 | 0.0 | 0.01 | 0.02 | 0.01 | 66 | 1013.9 |
| 20260906104826 | 74 | 238 | 0.0 | 0.0 | 0.00 | 0.01 | 0.00 | 63 | 1013.7 |
| 20260906104317 | 74 | 238 | 0.0 | 0.0 | 0.00 | 0.01 | 0.00 | 61 | 1013.6 |
| 20260906103828 | 74 | 238 | 0.0 | 0.0 | 0.00 | 0.01 | 0.00 | 61 | 1013.5 |
| 20260906103320 | 74 | 238 | 0.0 | 0.0 | 0.00 | 0.01 | 0.00 | 61 | 1013.4 |
| 20260906102812 | 74 | 238 | 0.0 | 0.0 | 0.00 | 0.01 | 0.00 | 61 | 1013.2 |
| 20260906102343 | 74 | 238 | 0.0 | 0.0 | 0.00 | 0.01 | 0.00 | 60 | 1013.1 |
| 20260906101814 | 74 | 238 | 0.0 | 0.0 | 0.00 | 0.01 | 0.00 | 61 | 1013.1 |
| 20260906101345 | 74 | 238 | 0.0 | 0.0 | 0.00 | 0.01 | 0.00 | 60 | 1013.1 |
| 20260906100815 | 74 | 238 | 0.0 | 0.0 | 0.00 | 0.01 | 0.00 | 60 | 1013.1 |
| 20260906100325 | 74 | 238 | 0.0 | 0.0 | 0.00 | 0.01 | 0.00 | 59 | 1013.0 |
| 20260906095820 | 74 | 238 | 0.0 | 0.0 | 0.00 | 0.01 | 0.00 | 59 | 1013.1 |
| 20260906095331 | 74 | 238 | 0.0 | 0.0 | 0.00 | 0.01 | 0.00 | 58 | 1013.1 |
| 20260906094821 | 74 | 238 | 0.0 | 0.0 | 0.00 | 0.01 | 0.00 | 57 | 1013.1 |
| 20260906094312 | 75 | 238 | 0.0 | 0.0 | 0.00 | 0.01 | 0.00 | 55 | 1013.1 |
| 20260906093824 | 75 | 238 | 0.0 | 0.0 | 0.00 | 0.01 | 0.00 | 55 | 1013.2 |
| 20260906093315 | 75 | 238 | 0.0 | 0.0 | 0.00 | 0.01 | 0.00 | 54 | 1013.2 |
| 20260906092827 | 75 | 238 | 0.0 | 0.0 | 0.00 | 0.01 | 0.00 | 51 | 1013.2 |
| 20260906092318 | 75 | 238 | 0.0 | 0.0 | 0.00 | 0.01 | 0.00 | 52 | 1013.2 |
| 20260906091813 | 75 | 238 | 0.0 | 0.0 | 0.00 | 0.01 | 0.00 | 52 | 1013.3 |
| 20260906091325 | 75 | 238 | 0.0 | 0.0 | 0.00 | 0.01 | 0.00 | 52 | 1013.4 |
| 20260906090816 | 75 | 238 | 0.0 | 0.0 | 0.00 | 0.01 | 0.00 | 52 | 1013.4 |
| 20260906090327 | 75 | 238 | 0.0 | 0.0 | 0.00 | 0.01 | 0.00 | 52 | 1013.3 |
| 20260906085818 | 75 | 238 | 0.0 | 0.0 | 0.00 | 0.01 | 0.00 | 52 | 1013.3 |
| 20260906085329 | 75 | 238 | 0.0 | 0.0 | 0.00 | 0.01 | 0.00 | 52 | 1013.3 |
| 20260906084819 | 75 | 238 | 0.0 | 0.0 | 0.00 | 0.01 | 0.00 | 52 | 1013.4 |
| 20260906084330 | 75 | 238 | 0.0 | 0.0 | 0.00 | 0.01 | 0.00 | 52 | 1013.4 |
| 20260906083825 | 75 | 238 | 0.0 | 0.0 | 0.00 | 0.01 | 0.00 | 52 | 1013.5 |
| 20260906083317 | 75 | 238 | 0.0 | 0.0 | 0.00 | 0.01 | 0.00 | 51 | 1013.5 |
| 20260906082828 | 75 | 238 | 0.0 | 0.0 | 0.00 | 0.01 | 0.00 | 49 | 1013.5 |
| 20260906082320 | 75 | 238 | 0.0 | 0.0 | 0.00 | 0.01 | 0.00 | 49 | 1013.6 |
| 20260906081831 | 75 | 238 | 0.0 | 0.0 | 0.00 | 0.01 | 0.00 | 50 | 1013.5 |
| 20260906081321 | 76 | 238 | 0.0 | 0.0 | 0.00 | 0.01 | 0.00 | 48 | 1013.5 |
| 20260906080811 | 76 | 238 | 0.0 | 0.0 | 0.00 | 0.01 | 0.00 | 50 | 1013.5 |
| 20260906080323 | 76 | 238 | 0.0 | 0.0 | 0.00 | 0.01 | 0.00 | 50 | 1013.4 |
| 20260906075818 | 76 | 238 | 0.0 | 0.0 | 0.00 | 0.01 | 0.00 | 50 | 1013.4 |
| 20260906075330 | 76 | 238 | 0.0 | 0.0 | 0.00 | 0.01 | 0.00 | 50 | 1013.5 |
| 20260906074821 | 76 | 238 | 0.0 | 0.0 | 0.00 | 0.01 | 0.00 | 49 | 1013.4 |
| 20260906074312 | 76 | 238 | 0.0 | 0.0 | 0.00 | 0.01 | 0.00 | 49 | 1013.5 |
| 20260906073845 | 76 | 238 | 0.0 | 0.0 | 0.00 | 0.01 | 0.00 | 49 | 1013.4 |
| 20260906073314 | 76 | 238 | 0.0 | 0.0 | 0.00 | 0.01 | 0.00 | 50 | 1013.4 |
| 20260906072826 | 76 | 238 | 0.0 | 0.0 | 0.00 | 0.01 | 0.00 | 50 | 1013.4 |
| 20260906072317 | 76 | 238 | 0.0 | 0.0 | 0.00 | 0.01 | 0.00 | 49 | 1013.4 |
| 20260906071829 | 76 | 238 | 0.0 | 0.0 | 0.00 | 0.01 | 0.00 | 48 | 1013.3 |
| 20260906071320 | 75 | 238 | 0.0 | 0.0 | 0.00 | 0.01 | 0.00 | 49 | 1013.4 |
| 20260906070816 | 75 | 238 | 0.0 | 0.0 | 0.00 | 0.01 | 0.00 | 48 | 1013.3 |
| 20260906070347 | 75 | 238 | 0.0 | 0.0 | 0.00 | 0.01 | 0.00 | 48 | 1013.2 |
| 20260906065816 | 75 | 238 | 0.0 | 0.0 | 0.00 | 0.01 | 0.00 | 48 | 1013.3 |
| 20260906065347 | 75 | 238 | 0.0 | 0.0 | 0.00 | 0.01 | 0.00 | 48 | 1013.3 |
| 20260906064838 | 76 | 238 | 0.0 | 0.0 | 0.00 | 0.01 | 0.00 | 49 | 1013.3 |
| 20260906064329 | 76 | 238 | 0.0 | 0.0 | 0.00 | 0.01 | 0.00 | 48 | 1013.2 |
| 20260906063820 | 76 | 238 | 0.0 | 0.0 | 0.00 | 0.01 | 0.00 | 49 | 1013.4 |
| 20260906063330 | 76 | 238 | 0.0 | 0.0 | 0.00 | 0.01 | 0.00 | 49 | 1013.3 |
| 20260906062822 | 76 | 238 | 0.0 | 0.0 | 0.00 | 0.01 | 0.00 | 49 | 1013.5 |
| 20260906062314 | 76 | 238 | 0.0 | 0.0 | 0.00 | 0.01 | 0.00 | 49 | 1013.5 |
| 20260906061826 | 76 | 238 | 0.0 | 0.0 | 0.00 | 0.01 | 0.00 | 49 | 1013.5 |
| 20260906061321 | 76 | 238 | 0.0 | 0.0 | 0.00 | 0.01 | 0.00 | 47 | 1013.4 |
| 20260906060813 | 76 | 238 | 0.0 | 0.0 | 0.00 | 0.01 | 0.00 | 46 | 1013.5 |
| 20260906060344 | 77 | 238 | 0.0 | 0.0 | 0.00 | 0.01 | 0.00 | 47 | 1013.4 |
| 20260906055814 | 77 | 238 | 0.0 | 0.0 | 0.00 | 0.01 | 0.00 | 46 | 1013.4 |
| 20260906055346 | 77 | 238 | 0.0 | 0.0 | 0.00 | 0.01 | 0.00 | 46 | 1013.4 |
| 20260906054816 | 77 | 238 | 0.0 | 0.0 | 0.00 | 0.01 | 0.00 | 46 | 1013.4 |
| 20260906054327 | 77 | 238 | 0.0 | 0.0 | 0.00 | 0.01 | 0.00 | 46 | 1013.3 |
| 20260906053820 | 77 | 238 | 0.0 | 0.0 | 0.00 | 0.01 | 0.00 | 45 | 1013.3 |
| 20260906053330 | 77 | 238 | 0.0 | 0.0 | 0.00 | 0.01 | 0.00 | 45 | 1013.2 |
| 20260906052826 | 77 | 238 | 0.0 | 0.0 | 0.00 | 0.01 | 0.00 | 44 | 1013.2 |
| 20260906052317 | 77 | 238 | 0.0 | 0.0 | 0.00 | 0.01 | 0.00 | 44 | 1013.2 |
| 20260906051830 | 78 | 238 | 0.0 | 0.0 | 0.00 | 0.01 | 0.00 | 44 | 1013.2 |
| 20260906051320 | 78 | 238 | 0.0 | 0.0 | 0.00 | 0.01 | 0.00 | 43 | 1013.2 |
| 20260906050811 | 79 | 238 | 0.0 | 0.0 | 0.00 | 0.01 | 0.00 | 42 | 1013.2 |
| 20260906050322 | 79 | 238 | 0.0 | 0.0 | 0.00 | 0.01 | 0.00 | 43 | 1013.4 |
| 20260906045814 | 79 | 238 | 0.0 | 0.0 | 0.00 | 0.01 | 0.00 | 42 | 1013.4 |
| 20260906045325 | 80 | 238 | 0.0 | 0.0 | 0.00 | 0.01 | 0.00 | 42 | 1013.3 |
| 20260906044821 | 80 | 238 | 0.0 | 0.0 | 0.00 | 0.01 | 0.00 | 41 | 1013.4 |
| 20260906044333 | 80 | 238 | 0.0 | 1.0 | 0.00 | 0.01 | 0.00 | 41 | 1013.4 |
| 20260906043823 | 80 | 238 | 0.0 | 1.0 | 0.00 | 0.01 | 0.00 | 40 | 1013.4 |
| 20260906043312 | 81 | 238 | 0.0 | 0.0 | 0.00 | 0.01 | 0.00 | 40 | 1013.4 |
| 20260906042824 | 81 | 238 | 0.0 | 0.0 | 0.00 | 0.01 | 0.00 | 39 | 1013.5 |
| 20260906042314 | 81 | 238 | 0.0 | 1.0 | 0.00 | 0.01 | 0.00 | 39 | 1013.4 |
| 20260906041825 | 81 | 238 | 0.0 | 3.0 | 0.00 | 0.01 | 0.00 | 39 | 1013.2 |
| 20260906041316 | 81 | 237 | 1.0 | 4.0 | 0.00 | 0.01 | 0.00 | 39 | 1013.2 |
| 20260906040828 | 81 | 210 | 2.0 | 4.0 | 0.00 | 0.01 | 0.00 | 38 | 1013.2 |
| 20260906040318 | 81 | 210 | 3.0 | 4.0 | 0.00 | 0.01 | 0.00 | 39 | 1013.3 |
| 20260906035830 | 81 | 252 | 0.0 | 0.0 | 0.00 | 0.01 | 0.00 | 39 | 1013.3 |
| 20260906035342 | 81 | 221 | 0.0 | 0.0 | 0.00 | 0.01 | 0.00 | 38 | 1013.1 |
| 20260906034819 | 81 | 221 | 0.0 | 0.0 | 0.00 | 0.01 | 0.00 | 38 | 1013.1 |
| 20260906034352 | 82 | 221 | 0.0 | 0.0 | 0.00 | 0.01 | 0.00 | 37 | 1013.2 |
| 20260906033821 | 82 | 221 | 0.0 | 0.0 | 0.00 | 0.01 | 0.00 | 36 | 1013.2 |
| 20260906033312 | 82 | 221 | 0.0 | 0.0 | 0.00 | 0.01 | 0.00 | 36 | 1013.2 |
| 20260906032825 | 83 | 221 | 0.0 | 0.0 | 0.00 | 0.01 | 0.00 | 36 | 1013.2 |
| 20260906032316 | 83 | 221 | 0.0 | 0.0 | 0.00 | 0.01 | 0.00 | 36 | 1013.1 |
| 20260906031828 | 83 | 221 | 0.0 | 3.0 | 0.00 | 0.01 | 0.00 | 36 | 1013.0 |
| 20260906031318 | 83 | 221 | 1.0 | 4.0 | 0.00 | 0.01 | 0.00 | 36 | 1013.0 |
| 20260906030849 | 83 | 224 | 0.0 | 4.0 | 0.00 | 0.01 | 0.00 | 35 | 1012.9 |
| 20260906030323 | 84 | 250 | 0.0 | 3.0 | 0.00 | 0.01 | 0.00 | 35 | 1012.9 |
| 20260906025811 | 84 | 271 | 1.0 | 4.0 | 0.00 | 0.01 | 0.00 | 35 | 1013.0 |
| 20260906025322 | 84 | 221 | 2.0 | 4.0 | 0.00 | 0.01 | 0.00 | 34 | 1012.8 |
| 20260906024814 | 84 | 280 | 1.0 | 5.0 | 0.00 | 0.01 | 0.00 | 35 | 1012.7 |
| 20260906024326 | 85 | 258 | 2.0 | 5.0 | 0.00 | 0.01 | 0.00 | 35 | 1012.6 |
| 20260906023817 | 85 | 216 | 1.0 | 5.0 | 0.00 | 0.01 | 0.00 | 35 | 1012.6 |
| 20260906023328 | 85 | 217 | 1.0 | 8.0 | 0.00 | 0.01 | 0.00 | 35 | 1012.6 |
| 20260906022840 | 85 | 210 | 4.0 | 8.0 | 0.00 | 0.01 | 0.00 | 35 | 1012.5 |
| 20260906022331 | 85 | 228 | 3.0 | 8.0 | 0.00 | 0.01 | 0.00 | 36 | 1012.4 |
| 20260906021826 | 86 | 217 | 3.0 | 8.0 | 0.00 | 0.01 | 0.00 | 35 | 1012.4 |
| 20260906021316 | 86 | 212 | 4.0 | 8.0 | 0.00 | 0.01 | 0.00 | 35 | 1012.3 |
| 20260906020829 | 86 | 231 | 3.0 | 7.0 | 0.00 | 0.01 | 0.00 | 35 | 1012.2 |
| 20260906020339 | 87 | 222 | 3.0 | 7.0 | 0.00 | 0.01 | 0.00 | 34 | 1012.3 |
| 20260906015849 | 87 | 220 | 2.0 | 10.0 | 0.00 | 0.01 | 0.00 | 34 | 1012.3 |
| 20260906015319 | 87 | 212 | 4.0 | 10.0 | 0.00 | 0.01 | 0.00 | 33 | 1012.2 |
| 20260906014811 | 87 | 219 | 2.0 | 10.0 | 0.00 | 0.01 | 0.00 | 33 | 1012.3 |
| 20260906014323 | 87 | 230 | 5.0 | 10.0 | 0.00 | 0.01 | 0.00 | 33 | 1012.1 |
| 20260906013814 | 88 | 196 | 3.0 | 9.0 | 0.00 | 0.01 | 0.00 | 33 | 1012.1 |
| 20260906013327 | 88 | 220 | 4.0 | 9.0 | 0.00 | 0.01 | 0.00 | 33 | 1012.2 |
| 20260906012839 | 88 | 238 | 4.0 | 11.0 | 0.00 | 0.01 | 0.00 | 32 | 1012.2 |
| 20260906012311 | 88 | 234 | 5.0 | 11.0 | 0.00 | 0.01 | 0.00 | 32 | 1012.4 |
| 20260906011824 | 89 | 219 | 5.0 | 10.0 | 0.00 | 0.01 | 0.00 | 32 | 1012.3 |
| 20260906011315 | 89 | 221 | 5.0 | 9.0 | 0.00 | 0.01 | 0.00 | 31 | 1012.4 |
| 20260906010827 | 89 | 244 | 2.0 | 12.0 | 0.00 | 0.01 | 0.00 | 31 | 1012.3 |
| 20260906010319 | 89 | 195 | 4.0 | 12.0 | 0.00 | 0.01 | 0.00 | 31 | 1012.3 |
| 20260906005831 | 89 | 219 | 6.0 | 11.0 | 0.00 | 0.01 | 0.00 | 31 | 1012.3 |
| 20260906005323 | 89 | 226 | 6.0 | 11.0 | 0.00 | 0.01 | 0.00 | 31 | 1012.4 |
| 20260906004815 | 89 | 226 | 5.0 | 9.0 | 0.00 | 0.01 | 0.00 | 31 | 1012.4 |
| 20260906004326 | 89 | 257 | 6.0 | 9.0 | 0.00 | 0.01 | 0.00 | 31 | 1012.5 |
| 20260906003821 | 90 | 194 | 3.0 | 7.0 | 0.00 | 0.01 | 0.00 | 32 | 1012.3 |
| 20260906003312 | 89 | 217 | 1.0 | 9.0 | 0.00 | 0.01 | 0.00 | 32 | 1012.3 |
| 20260906002823 | 89 | 214 | 4.0 | 11.0 | 0.00 | 0.01 | 0.00 | 32 | 1012.3 |
| 20260906002315 | 90 | 224 | 5.0 | 10.0 | 0.00 | 0.01 | 0.00 | 31 | 1012.2 |
| 20260906001826 | 90 | 195 | 4.0 | 10.0 | 0.00 | 0.01 | 0.00 | 31 | 1012.3 |
| 20260906001316 | 90 | 185 | 2.0 | 11.0 | 0.00 | 0.01 | 0.00 | 32 | 1012.3 |
| 20260906000828 | 90 | 195 | 5.0 | 9.0 | 0.00 | 0.01 | 0.00 | 31 | 1012.3 |
| 20260906000340 | 90 | 234 | 6.0 | 10.0 | 0.00 | 0.01 | 0.00 | 31 | 1012.2 |
| 20260905235851 | 90 | 217 | 5.0 | 11.0 | 0.00 | 0.01 | 0.00 | 31 | 1012.2 |
| 20260905235321 | 90 | 193 | 5.0 | 11.0 | 0.00 | 0.01 | 0.00 | 31 | 1012.3 |
| 20260905234816 | 90 | 251 | 4.0 | 10.0 | 0.00 | 0.01 | 0.00 | 31 | 1012.3 |
| 20260905234326 | 90 | 240 | 3.0 | 9.0 | 0.00 | 0.01 | 0.00 | 30 | 1012.3 |
| 20260905233818 | 90 | 250 | 4.0 | 9.0 | 0.00 | 0.01 | 0.00 | 30 | 1012.4 |
| 20260905233329 | 91 | 231 | 3.0 | 12.0 | 0.00 | 0.01 | 0.00 | 30 | 1012.4 |
| 20260905232820 | 91 | 201 | 5.0 | 12.0 | 0.00 | 0.01 | 0.00 | 30 | 1012.4 |
| 20260905232312 | 91 | 191 | 3.0 | 10.0 | 0.00 | 0.01 | 0.00 | 30 | 1012.4 |
| 20260905231823 | 91 | 221 | 5.0 | 11.0 | 0.00 | 0.01 | 0.00 | 30 | 1012.4 |
| 20260905231314 | 91 | 195 | 4.0 | 11.0 | 0.00 | 0.01 | 0.00 | 30 | 1012.4 |
| 20260905230825 | 91 | 209 | 4.0 | 10.0 | 0.00 | 0.01 | 0.00 | 30 | 1012.4 |
| 20260905230320 | 91 | 259 | 3.0 | 9.0 | 0.00 | 0.01 | 0.00 | 30 | 1012.5 |
| 20260905225812 | 91 | 293 | 5.0 | 9.0 | 0.00 | 0.01 | 0.00 | 30 | 1012.5 |
| 20260905225323 | 91 | 245 | 3.0 | 10.0 | 0.00 | 0.01 | 0.00 | 30 | 1012.4 |
| 20260905224835 | 91 | 193 | 7.0 | 10.0 | 0.00 | 0.01 | 0.00 | 29 | 1012.5 |
| 20260905224325 | 91 | 215 | 5.0 | 9.0 | 0.00 | 0.01 | 0.00 | 29 | 1012.5 |
| 20260905223817 | 91 | 195 | 3.0 | 12.0 | 0.00 | 0.01 | 0.00 | 29 | 1012.6 |
| 20260905223327 | 91 | 248 | 5.0 | 12.0 | 0.00 | 0.01 | 0.00 | 29 | 1012.6 |
| 20260905222818 | 92 | 260 | 4.0 | 11.0 | 0.00 | 0.01 | 0.00 | 28 | 1012.6 |
| 20260905222330 | 92 | 255 | 5.0 | 11.0 | 0.00 | 0.01 | 0.00 | 28 | 1012.7 |
| 20260905221821 | 93 | 224 | 5.0 | 11.0 | 0.00 | 0.01 | 0.00 | 28 | 1012.6 |
| 20260905221314 | 93 | 238 | 5.0 | 11.0 | 0.00 | 0.01 | 0.00 | 28 | 1012.7 |
| 20260905220830 | 93 | 229 | 1.0 | 13.0 | 0.00 | 0.01 | 0.00 | 26 | 1012.7 |
| 20260905220322 | 92 | 219 | 8.0 | 13.0 | 0.00 | 0.01 | 0.00 | 26 | 1012.6 |
| 20260905215812 | 93 | 217 | 4.0 | 13.0 | 0.00 | 0.01 | 0.00 | 23 | 1012.7 |
| 20260905215345 | 93 | 311 | 3.0 | 13.0 | 0.00 | 0.01 | 0.00 | 23 | 1012.8 |
| 20260905214816 | 93 | 224 | 7.0 | 12.0 | 0.00 | 0.01 | 0.00 | 24 | 1012.9 |
| 20260905214328 | 93 | 192 | 0.0 | 13.0 | 0.00 | 0.01 | 0.00 | 24 | 1012.8 |
| 20260905213840 | 93 | 242 | 5.0 | 13.0 | 0.00 | 0.01 | 0.00 | 23 | 1012.9 |
| 20260905213330 | 93 | 133 | 2.0 | 10.0 | 0.00 | 0.01 | 0.00 | 23 | 1013.0 |
| 20260905212843 | 93 | 273 | 5.0 | 10.0 | 0.00 | 0.01 | 0.00 | 23 | 1013.0 |
| 20260905212313 | 93 | 244 | 2.0 | 9.0 | 0.00 | 0.01 | 0.00 | 23 | 1013.1 |
| 20260905211825 | 93 | 213 | 4.0 | 10.0 | 0.00 | 0.01 | 0.00 | 22 | 1013.2 |
| 20260905211341 | 93 | 228 | 3.0 | 13.0 | 0.00 | 0.01 | 0.00 | 22 | 1013.1 |
| 20260905210811 | 93 | 209 | 7.0 | 13.0 | 0.00 | 0.01 | 0.00 | 22 | 1013.2 |
| 20260905210323 | 92 | 221 | 1.0 | 10.0 | 0.00 | 0.01 | 0.00 | 23 | 1013.2 |
| 20260905205814 | 92 | 181 | 5.0 | 10.0 | 0.00 | 0.01 | 0.00 | 23 | 1013.3 |
| 20260905205326 | 92 | 212 | 4.0 | 11.0 | 0.00 | 0.01 | 0.00 | 23 | 1013.3 |
| 20260905204818 | 93 | 264 | 6.0 | 11.0 | 0.00 | 0.01 | 0.00 | 21 | 1013.4 |
| 20260905204329 | 92 | 269 | 3.0 | 10.0 | 0.00 | 0.01 | 0.00 | 23 | 1013.4 |
| 20260905203819 | 92 | 153 | 3.0 | 10.0 | 0.00 | 0.01 | 0.00 | 24 | 1013.4 |
| 20260905203314 | 92 | 278 | 3.0 | 10.0 | 0.00 | 0.01 | 0.00 | 22 | 1013.4 |
| 20260905202825 | 93 | 232 | 3.0 | 9.0 | 0.00 | 0.01 | 0.00 | 22 | 1013.5 |
| 20260905202315 | 93 | 272 | 3.0 | 7.0 | 0.00 | 0.01 | 0.00 | 21 | 1013.5 |
| 20260905201847 | 92 | 247 | 4.0 | 10.0 | 0.00 | 0.01 | 0.00 | 20 | 1013.6 |
| 20260905201317 | 92 | 223 | 2.0 | 13.0 | 0.00 | 0.01 | 0.00 | 20 | 1013.6 |
| 20260905200828 | 92 | 228 | 6.0 | 11.0 | 0.00 | 0.01 | 0.00 | 20 | 1013.7 |
| 20260905200318 | 92 | 200 | 3.0 | 9.0 | 0.00 | 0.01 | 0.00 | 22 | 1013.7 |
| 20260905195850 | 91 | 269 | 1.0 | 8.0 | 0.00 | 0.01 | 0.00 | 19 | 1013.7 |
| 20260905195321 | 91 | 55 | 2.0 | 8.0 | 0.00 | 0.01 | 0.00 | 18 | 1013.8 |
| 20260905194852 | 92 | 269 | 2.0 | 7.0 | 0.00 | 0.01 | 0.00 | 15 | 1013.9 |
| 20260905194322 | 92 | 237 | 4.0 | 7.0 | 0.00 | 0.01 | 0.00 | 16 | 1014.0 |
| 20260905193813 | 92 | 274 | 3.0 | 10.0 | 0.00 | 0.01 | 0.00 | 15 | 1014.1 |
| 20260905193328 | 91 | 210 | 5.0 | 10.0 | 0.00 | 0.01 | 0.00 | 16 | 1014.1 |
| 20260905192820 | 91 | 226 | 2.0 | 6.0 | 0.00 | 0.01 | 0.00 | 16 | 1014.1 |
| 20260905192311 | 90 | 319 | 1.0 | 6.0 | 0.00 | 0.01 | 0.00 | 17 | 1014.1 |
| 20260905191823 | 91 | 281 | 3.0 | 7.0 | 0.00 | 0.01 | 0.00 | 16 | 1014.2 |
| 20260905191313 | 90 | 238 | 3.0 | 7.0 | 0.00 | 0.01 | 0.00 | 16 | 1014.4 |
| 20260905190824 | 90 | 198 | 3.0 | 7.0 | 0.00 | 0.01 | 0.00 | 16 | 1014.4 |
| 20260905190313 | 89 | 197 | 0.0 | 6.0 | 0.00 | 0.01 | 0.00 | 17 | 1014.4 |
| 20260905185825 | 88 | 217 | 2.0 | 6.0 | 0.00 | 0.01 | 0.00 | 18 | 1014.4 |
| 20260905185315 | 88 | 308 | 3.0 | 6.0 | 0.00 | 0.01 | 0.00 | 18 | 1014.5 |
| 20260905184827 | 87 | 308 | 2.0 | 6.0 | 0.00 | 0.01 | 0.00 | 18 | 1014.5 |
| 20260905184322 | 87 | 68 | 1.0 | 5.0 | 0.00 | 0.01 | 0.00 | 19 | 1014.5 |
| 20260905183812 | 87 | 295 | 2.0 | 7.0 | 0.00 | 0.01 | 0.00 | 19 | 1014.5 |
| 20260905183323 | 87 | 313 | 3.0 | 6.0 | 0.00 | 0.01 | 0.00 | 19 | 1014.6 |
| 20260905182815 | 87 | 304 | 2.0 | 6.0 | 0.00 | 0.01 | 0.00 | 19 | 1014.6 |
| 20260905182326 | 87 | 256 | 1.0 | 7.0 | 0.00 | 0.01 | 0.00 | 19 | 1014.7 |
| 20260905181818 | 86 | 202 | 1.0 | 7.0 | 0.00 | 0.01 | 0.00 | 20 | 1014.7 |
| 20260905181329 | 86 | 63 | 1.0 | 8.0 | 0.00 | 0.01 | 0.00 | 21 | 1014.8 |
| 20260905180820 | 85 | 291 | 3.0 | 8.0 | 0.00 | 0.01 | 0.00 | 20 | 1014.8 |
| 20260905180351 | 84 | 323 | 2.0 | 5.0 | 0.00 | 0.01 | 0.00 | 21 | 1014.8 |
| 20260905175821 | 84 | 308 | 1.0 | 7.0 | 0.00 | 0.01 | 0.00 | 22 | 1014.8 |
| 20260905175316 | 83 | 310 | 2.0 | 7.0 | 0.00 | 0.01 | 0.00 | 22 | 1014.8 |
| 20260905174829 | 83 | 32 | 3.0 | 7.0 | 0.00 | 0.01 | 0.00 | 23 | 1014.8 |
| 20260905174319 | 82 | 344 | 2.0 | 6.0 | 0.00 | 0.01 | 0.00 | 23 | 1014.7 |
| 20260905173851 | 82 | 299 | 1.0 | 6.0 | 0.00 | 0.01 | 0.00 | 24 | 1014.6 |
| 20260905173322 | 81 | 285 | 2.0 | 4.0 | 0.00 | 0.01 | 0.00 | 24 | 1014.7 |
| 20260905172812 | 81 | 282 | 1.0 | 4.0 | 0.00 | 0.01 | 0.00 | 24 | 1014.6 |
| 20260905172323 | 81 | 326 | 2.0 | 4.0 | 0.00 | 0.01 | 0.00 | 24 | 1014.7 |
| 20260905171814 | 81 | 293 | 2.0 | 4.0 | 0.00 | 0.01 | 0.00 | 24 | 1014.7 |
| 20260905171324 | 80 | 304 | 1.0 | 4.0 | 0.00 | 0.01 | 0.00 | 24 | 1014.6 |
| 20260905170815 | 80 | 302 | 2.0 | 4.0 | 0.00 | 0.01 | 0.00 | 24 | 1014.5 |
| 20260905170330 | 79 | 20 | 2.0 | 5.0 | 0.00 | 0.01 | 0.00 | 26 | 1014.7 |
| 20260905165821 | 79 | 312 | 1.0 | 5.0 | 0.00 | 0.01 | 0.00 | 26 | 1014.7 |
| 20260905165312 | 78 | 25 | 1.0 | 5.0 | 0.00 | 0.01 | 0.00 | 27 | 1014.7 |
| 20260905164816 | 78 | 287 | 2.0 | 5.0 | 0.00 | 0.01 | 0.00 | 27 | 1014.7 |
| 20260905164328 | 78 | 290 | 2.0 | 5.0 | 0.00 | 0.01 | 0.00 | 27 | 1014.6 |
| 20260905163818 | 78 | 319 | 2.0 | 5.0 | 0.00 | 0.01 | 0.00 | 28 | 1014.6 |
| 20260905163329 | 77 | 309 | 1.0 | 4.0 | 0.00 | 0.01 | 0.00 | 29 | 1014.6 |
| 20260905162819 | 77 | 311 | 1.0 | 4.0 | 0.00 | 0.01 | 0.00 | 29 | 1014.6 |
| 20260905162330 | 77 | 34 | 1.0 | 3.0 | 0.00 | 0.01 | 0.00 | 29 | 1014.5 |
| 20260905161841 | 76 | 310 | 0.0 | 3.0 | 0.00 | 0.01 | 0.00 | 29 | 1014.6 |
| 20260905161315 | 76 | 32 | 0.0 | 3.0 | 0.00 | 0.01 | 0.00 | 29 | 1014.5 |
| 20260905160826 | 76 | 6 | 1.0 | 2.0 | 0.00 | 0.01 | 0.00 | 29 | 1014.5 |
| 20260905160318 | 76 | 235 | 1.0 | 1.0 | 0.00 | 0.01 | 0.00 | 28 | 1014.6 |
| 20260905155849 | 76 | 234 | 0.0 | 1.0 | 0.00 | 0.01 | 0.00 | 29 | 1014.5 |
| 20260905155319 | 74 | 235 | 0.0 | 1.0 | 0.00 | 0.01 | 0.00 | 31 | 1014.5 |
| 20260905154831 | 74 | 236 | 0.0 | 1.0 | 0.00 | 0.01 | 0.00 | 32 | 1014.5 |
| 20260905154322 | 73 | 236 | 0.0 | 1.0 | 0.00 | 0.01 | 0.00 | 33 | 1014.4 |
| 20260905153814 | 73 | 212 | 0.0 | 1.0 | 0.00 | 0.01 | 0.00 | 33 | 1014.4 |
| 20260905153324 | 72 | 212 | 0.0 | 1.0 | 0.00 | 0.01 | 0.00 | 34 | 1014.5 |
| 20260905152820 | 72 | 212 | 0.0 | 1.0 | 0.00 | 0.01 | 0.00 | 34 | 1014.4 |
| 20260905152311 | 71 | 212 | 0.0 | 1.0 | 0.01 | 0.01 | 0.00 | 35 | 1014.4 |
| 20260905151821 | 70 | 212 | 0.0 | 2.0 | 0.01 | 0.01 | 0.00 | 36 | 1014.3 |
| 20260905151312 | 71 | 212 | 0.0 | 2.0 | 0.01 | 0.01 | 0.00 | 34 | 1014.2 |
| 20260905150844 | 71 | 212 | 0.0 | 1.0 | 0.01 | 0.01 | 0.00 | 35 | 1014.2 |